createdAt,value
2017-07-26T00:00:58.042Z,89.50
2017-07-26T00:02:59.594Z,89.98
2017-07-26T00:05:01.102Z,89.79
2017-07-26T00:07:02.631Z,90.08
2017-07-26T00:09:04.163Z,90.08
2017-07-26T00:11:05.725Z,90.46
2017-07-26T00:13:47.363Z,90.27
2017-07-26T00:15:48.808Z,90.46
2017-07-26T00:17:50.232Z,90.66
2017-07-26T00:19:51.672Z,90.37
2017-07-26T00:21:53.273Z,90.17
2017-07-26T00:23:54.740Z,90.66
2017-07-26T00:25:56.163Z,90.17
2017-07-26T00:27:57.672Z,90.37
2017-07-26T00:29:59.226Z,90.37
2017-07-26T00:32:00.742Z,89.98
2017-07-26T00:34:02.261Z,90.17
2017-07-26T00:36:03.817Z,90.08
2017-07-26T00:38:05.329Z,90.75
2017-07-26T00:40:06.864Z,90.27
2017-07-26T00:42:08.349Z,90.27
2017-07-26T00:44:09.863Z,90.08
2017-07-26T00:46:11.371Z,90.46
2017-07-26T00:48:12.968Z,90.37
2017-07-26T00:50:14.525Z,89.89
2017-07-26T00:52:16.002Z,89.98
2017-07-26T00:54:17.622Z,90.17
2017-07-26T00:56:19.133Z,90.37
2017-07-26T00:58:20.649Z,90.17
2017-07-26T01:00:22.123Z,90.46
2017-07-26T01:02:23.673Z,90.51
2017-07-26T01:04:25.114Z,90.46
2017-07-26T01:06:26.653Z,90.60
2017-07-26T01:08:28.201Z,90.03
2017-07-26T01:10:29.708Z,90.17
2017-07-26T01:12:31.225Z,90.56
2017-07-26T01:14:32.724Z,90.70
2017-07-26T01:17:15.163Z,90.89
2017-07-26T01:19:16.581Z,90.31
2017-07-26T01:21:18.020Z,90.56
2017-07-26T01:23:19.727Z,90.41
2017-07-26T01:25:21.116Z,90.46
2017-07-26T01:27:22.635Z,90.89
2017-07-26T01:29:24.588Z,90.99
2017-07-26T01:31:26.156Z,91.18
2017-07-26T01:33:27.670Z,91.18
2017-07-26T01:35:29.172Z,90.80
2017-07-26T01:37:30.713Z,90.70
2017-07-26T01:39:32.220Z,90.41
2017-07-26T01:41:33.791Z,91.08
2017-07-26T01:43:35.345Z,90.70
2017-07-26T01:45:36.856Z,90.70
2017-07-26T01:47:38.408Z,90.99
2017-07-26T01:49:39.926Z,90.31
2017-07-26T01:51:41.441Z,90.89
2017-07-26T01:53:42.953Z,91.08
2017-07-26T01:55:44.466Z,91.08
2017-07-26T01:57:45.990Z,90.80
2017-07-26T02:00:28.376Z,90.89
2017-07-26T02:02:29.807Z,90.89
2017-07-26T02:04:31.233Z,90.89
2017-07-26T02:06:32.662Z,91.08
2017-07-26T02:08:34.086Z,90.70
2017-07-26T02:10:35.669Z,91.08
2017-07-26T02:12:37.393Z,91.18
2017-07-26T02:14:38.845Z,91.28
2017-07-26T02:17:20.361Z,91.37
2017-07-26T02:19:21.966Z,91.08
2017-07-26T02:21:23.398Z,91.47
2017-07-26T02:23:24.829Z,91.28
2017-07-26T02:25:26.299Z,91.66
2017-07-26T02:27:27.748Z,91.66
2017-07-26T02:29:29.270Z,91.56
2017-07-26T02:31:30.723Z,91.66
2017-07-26T02:34:13.239Z,91.37
2017-07-26T02:36:14.678Z,90.99
2017-07-26T02:38:16.104Z,91.08
2017-07-26T02:40:17.542Z,90.89
2017-07-26T02:43:00.134Z,91.28
2017-07-26T02:45:01.544Z,91.56
2017-07-26T02:47:02.971Z,91.71
2017-07-26T02:49:45.439Z,91.66
2017-07-26T02:51:46.863Z,91.47
2017-07-26T02:53:48.315Z,91.52
2017-07-26T02:55:49.731Z,91.81
2017-07-26T02:58:32.162Z,91.56
2017-07-26T03:00:33.578Z,91.61
2017-07-26T03:02:35.003Z,91.52
2017-07-26T03:05:16.638Z,91.90
2017-07-26T03:07:18.057Z,91.61
2017-07-26T03:09:19.480Z,91.90
2017-07-26T03:11:20.909Z,91.85
2017-07-26T03:13:22.333Z,91.37
2017-07-26T03:15:23.758Z,91.61
2017-07-26T03:17:25.188Z,91.42
2017-07-26T03:19:26.616Z,91.81
2017-07-26T03:22:09.347Z,91.23
2017-07-26T03:24:10.813Z,91.52
2017-07-26T03:26:12.241Z,91.52
2017-07-26T03:28:13.669Z,91.04
2017-07-26T03:30:56.086Z,91.23
2017-07-26T03:32:57.511Z,91.42
2017-07-26T03:34:58.938Z,91.23
2017-07-26T03:37:00.364Z,90.84
2017-07-26T03:39:01.788Z,90.94
2017-07-26T03:41:03.396Z,91.04
2017-07-26T03:43:04.802Z,91.04
2017-07-26T03:45:47.217Z,91.04
2017-07-26T03:47:48.648Z,91.04
2017-07-26T03:49:50.076Z,91.23
2017-07-26T03:51:51.502Z,91.13
2017-07-26T03:53:52.928Z,91.04
2017-07-26T03:55:54.358Z,90.94
2017-07-26T03:57:55.787Z,90.66
2017-07-26T03:59:57.226Z,90.66
2017-07-26T04:01:58.654Z,90.66
2017-07-26T04:04:00.187Z,90.66
2017-07-26T04:06:01.645Z,90.94
2017-07-26T04:08:03.071Z,90.80
2017-07-26T04:10:04.528Z,91.04
2017-07-26T04:12:06.028Z,91.04
2017-07-26T04:14:07.616Z,91.13
2017-07-26T04:16:09.138Z,91.42
2017-07-26T04:18:51.923Z,91.04
2017-07-26T04:20:53.300Z,91.18
2017-07-26T04:22:54.726Z,91.18
2017-07-26T04:24:56.171Z,90.89
2017-07-26T04:26:57.601Z,91.08
2017-07-26T04:28:59.036Z,90.99
2017-07-26T04:31:00.461Z,90.99
2017-07-26T04:33:42.880Z,91.37
2017-07-26T04:35:44.308Z,90.89
2017-07-26T04:37:45.737Z,90.80
2017-07-26T04:39:47.167Z,91.47
2017-07-26T04:41:48.593Z,91.28
2017-07-26T04:43:50.159Z,91.08
2017-07-26T04:45:51.555Z,91.18
2017-07-26T04:47:53.000Z,90.51
2017-07-26T04:49:54.535Z,90.99
2017-07-26T04:51:55.977Z,91.08
2017-07-26T04:53:57.417Z,91.18
2017-07-26T04:55:58.924Z,90.41
2017-07-26T04:58:00.374Z,90.60
2017-07-26T05:00:01.803Z,90.41
2017-07-26T05:02:03.230Z,90.51
2017-07-26T05:04:04.758Z,90.17
2017-07-26T05:06:06.181Z,90.55
2017-07-26T05:08:07.818Z,90.55
2017-07-26T05:10:09.291Z,90.55
2017-07-26T05:12:10.770Z,90.26
2017-07-26T05:14:12.212Z,90.17
2017-07-26T05:16:13.638Z,90.75
2017-07-26T05:18:15.073Z,90.65
2017-07-26T05:20:16.499Z,90.84
2017-07-26T05:22:17.956Z,90.65
2017-07-26T05:24:19.401Z,90.07
2017-07-26T05:26:20.871Z,90.65
2017-07-26T05:28:22.334Z,90.26
2017-07-26T05:30:23.831Z,90.36
2017-07-26T05:32:25.302Z,90.36
2017-07-26T05:34:26.855Z,90.17
2017-07-26T05:36:28.345Z,90.07
2017-07-26T05:38:29.905Z,89.98
2017-07-26T05:40:31.469Z,90.55
2017-07-26T05:42:32.956Z,90.36
2017-07-26T05:44:34.435Z,90.07
2017-07-26T05:46:35.972Z,90.45
2017-07-26T05:48:37.417Z,90.26
2017-07-26T05:50:38.919Z,89.30
2017-07-26T05:52:40.409Z,89.11
2017-07-26T05:54:41.905Z,89.69
2017-07-26T05:56:43.438Z,89.50
2017-07-26T05:58:44.982Z,89.83
2017-07-26T06:00:46.444Z,89.06
2017-07-26T06:02:48.001Z,86.07
2017-07-26T06:04:49.486Z,84.43
2017-07-26T06:06:51.006Z,83.51
2017-07-26T06:09:34.079Z,84.09
2017-07-26T06:11:35.477Z,82.59
2017-07-26T06:13:36.914Z,80.94
2017-07-26T06:15:38.348Z,79.97
2017-07-26T06:17:39.778Z,75.54
2017-07-26T06:19:41.219Z,69.40
2017-07-26T06:21:42.663Z,62.23
2017-07-26T06:23:44.093Z,61.07
2017-07-26T06:25:45.530Z,62.59
2017-07-26T06:27:46.964Z,65.53
2017-07-26T06:29:48.409Z,68.37
2017-07-26T06:32:30.820Z,70.00
2017-07-26T06:34:32.261Z,71.67
2017-07-26T06:36:33.698Z,73.57
2017-07-26T06:38:35.150Z,74.88
2017-07-26T06:40:36.572Z,75.84
2017-07-26T06:42:38.003Z,76.26
2017-07-26T06:44:39.447Z,75.49
2017-07-26T06:46:40.885Z,76.07
2017-07-26T06:48:42.349Z,74.99
2017-07-26T06:50:43.913Z,72.25
2017-07-26T06:52:45.338Z,74.08
2017-07-26T06:54:46.790Z,74.37
2017-07-26T06:57:29.204Z,74.18
2017-07-26T06:59:30.641Z,75.68
2017-07-26T07:01:32.184Z,75.49
2017-07-26T07:03:33.590Z,75.74
2017-07-26T07:05:35.415Z,76.13
2017-07-26T07:07:36.808Z,76.76
2017-07-26T07:09:38.751Z,77.92
2017-07-26T07:11:40.191Z,78.25
2017-07-26T07:13:41.624Z,73.63
2017-07-26T07:15:43.059Z,68.08
2017-07-26T07:17:44.496Z,61.65
2017-07-26T07:19:45.945Z,55.53
2017-07-26T07:21:47.381Z,54.25
2017-07-26T07:23:48.821Z,52.26
2017-07-26T07:25:50.365Z,49.68
2017-07-26T07:27:51.791Z,48.39
2017-07-26T07:29:53.245Z,47.32
2017-07-26T07:31:54.735Z,49.58
2017-07-26T07:34:37.194Z,50.92
2017-07-26T07:36:38.637Z,51.80
2017-07-26T07:38:40.080Z,53.28
2017-07-26T07:40:41.514Z,56.47
2017-07-26T07:42:42.955Z,57.94
2017-07-26T07:44:44.961Z,60.04
2017-07-26T07:46:46.420Z,64.04
2017-07-26T07:48:47.856Z,65.24
2017-07-26T07:50:49.748Z,67.43
2017-07-26T07:52:51.214Z,68.98
2017-07-26T07:54:52.648Z,70.97
2017-07-26T07:56:54.092Z,71.12
2017-07-26T07:58:55.535Z,72.19
2017-07-26T08:00:56.986Z,71.48
2017-07-26T08:02:58.431Z,71.58
2017-07-26T08:05:40.882Z,70.61
2017-07-26T08:07:42.308Z,71.58
2017-07-26T08:09:43.742Z,73.21
2017-07-26T08:11:45.181Z,72.15
2017-07-26T08:13:46.617Z,72.25
2017-07-26T08:15:48.052Z,72.44
2017-07-26T08:17:49.512Z,75.72
2017-07-26T08:19:50.968Z,74.47
2017-07-26T08:21:52.449Z,74.47
2017-07-26T08:23:53.937Z,74.37
2017-07-26T08:25:55.821Z,74.08
2017-07-26T08:27:57.338Z,72.63
2017-07-26T08:29:58.868Z,72.63
2017-07-26T08:32:00.371Z,75.37
2017-07-26T08:34:01.841Z,73.50
2017-07-26T08:36:03.388Z,74.21
2017-07-26T08:38:04.909Z,73.35
2017-07-26T08:40:06.515Z,70.78
2017-07-26T08:42:08.009Z,70.97
2017-07-26T08:44:09.533Z,69.90
2017-07-26T08:46:11.166Z,69.42
2017-07-26T08:48:12.648Z,67.04
2017-07-26T08:50:14.154Z,66.94
2017-07-26T08:52:15.724Z,66.75
2017-07-26T08:54:17.257Z,68.30
2017-07-26T08:56:18.790Z,70.07
2017-07-26T08:58:20.774Z,69.49
2017-07-26T09:00:22.254Z,68.91
2017-07-26T09:02:23.864Z,63.47
2017-07-26T09:04:26.377Z,67.04
2017-07-26T09:06:27.852Z,67.66
2017-07-26T09:08:29.437Z,66.69
2017-07-26T09:10:30.948Z,67.36
2017-07-26T09:12:32.399Z,66.78
2017-07-26T09:14:34.185Z,65.62
2017-07-26T09:16:35.584Z,66.20
2017-07-26T09:18:37.154Z,65.43
2017-07-26T09:20:38.606Z,67.33
2017-07-26T09:22:40.116Z,67.33
2017-07-26T09:24:41.576Z,65.62
2017-07-26T09:26:43.061Z,65.82
2017-07-26T09:28:44.641Z,65.20
2017-07-26T09:30:46.073Z,68.68
2017-07-26T09:32:47.545Z,66.56
2017-07-26T09:34:49.040Z,66.59
2017-07-26T09:36:50.563Z,64.37
2017-07-26T09:38:52.108Z,64.47
2017-07-26T09:40:53.598Z,65.17
2017-07-26T09:42:55.098Z,65.72
2017-07-26T09:44:56.683Z,64.27
2017-07-26T09:46:58.153Z,65.34
2017-07-26T09:48:59.706Z,59.76
2017-07-26T09:51:01.215Z,61.50
2017-07-26T09:53:02.656Z,62.95
2017-07-26T09:55:04.179Z,60.63
2017-07-26T09:57:05.736Z,61.27
2017-07-26T09:59:07.273Z,62.76
2017-07-26T10:01:08.755Z,65.47
2017-07-26T10:03:10.353Z,62.50
2017-07-26T10:05:11.882Z,64.56
2017-07-26T10:07:13.391Z,62.75
2017-07-26T10:09:14.860Z,60.33
2017-07-26T10:11:16.380Z,61.59
2017-07-26T10:13:17.858Z,58.49
2017-07-26T10:15:19.401Z,57.50
2017-07-26T10:17:20.916Z,62.11
2017-07-26T10:19:22.431Z,60.21
2017-07-26T10:21:23.927Z,58.47
2017-07-26T10:23:25.574Z,59.66
2017-07-26T10:25:27.075Z,56.85
2017-07-26T10:27:28.600Z,56.46
2017-07-26T10:29:30.085Z,56.94
2017-07-26T10:31:31.678Z,55.49
2017-07-26T10:33:33.315Z,59.00
2017-07-26T10:35:34.813Z,56.49
2017-07-26T10:37:36.412Z,58.33
2017-07-26T10:39:37.882Z,56.16
2017-07-26T10:41:39.445Z,58.88
2017-07-26T10:43:40.991Z,57.59
2017-07-26T10:45:42.472Z,59.63
2017-07-26T10:47:43.979Z,62.53
2017-07-26T10:49:45.473Z,56.40
2017-07-26T10:51:46.978Z,57.73
2017-07-26T10:53:48.714Z,59.56
2017-07-26T10:55:50.867Z,60.05
2017-07-26T10:57:52.320Z,63.60
2017-07-26T10:59:53.849Z,62.98
2017-07-26T11:01:55.335Z,62.02
2017-07-26T11:03:56.797Z,64.43
2017-07-26T11:05:58.773Z,65.53
2017-07-26T11:08:00.332Z,64.50
2017-07-26T11:10:01.832Z,64.40
2017-07-26T11:12:03.321Z,60.17
2017-07-26T11:14:04.907Z,62.17
2017-07-26T11:16:06.380Z,61.98
2017-07-26T11:18:07.864Z,57.79
2017-07-26T11:20:09.866Z,59.53
2017-07-26T11:22:11.659Z,59.91
2017-07-26T11:24:13.183Z,59.11
2017-07-26T11:26:14.761Z,60.05
2017-07-26T11:28:16.270Z,59.86
2017-07-26T11:30:17.790Z,59.89
2017-07-26T11:32:19.289Z,60.47
2017-07-26T11:34:20.802Z,60.40
2017-07-26T11:36:22.375Z,59.17
2017-07-26T11:38:23.861Z,58.91
2017-07-26T11:40:25.343Z,58.14
2017-07-26T11:42:26.918Z,58.36
2017-07-26T11:44:28.488Z,57.29
2017-07-26T11:46:29.994Z,54.96
2017-07-26T11:48:31.481Z,59.42
2017-07-26T11:50:33.453Z,56.77
2017-07-26T11:52:34.993Z,54.91
2017-07-26T11:54:36.528Z,57.98
2017-07-26T11:56:38.021Z,58.44
2017-07-26T11:58:39.524Z,58.92
2017-07-26T12:00:41.051Z,60.75
2017-07-26T12:02:42.536Z,60.50
2017-07-26T12:04:44.028Z,61.79
2017-07-26T12:06:45.506Z,57.53
2017-07-26T12:08:47.368Z,60.36
2017-07-26T12:10:48.784Z,57.97
2017-07-26T12:12:50.280Z,58.65
2017-07-26T12:14:51.721Z,57.78
2017-07-26T12:16:53.162Z,57.29
2017-07-26T12:18:54.600Z,56.03
2017-07-26T12:20:56.037Z,54.91
2017-07-26T12:22:57.479Z,57.81
2017-07-26T12:24:58.915Z,55.88
2017-07-26T12:27:00.358Z,58.39
2017-07-26T12:29:01.796Z,58.39
2017-07-26T12:31:03.239Z,55.22
2017-07-26T12:33:04.989Z,53.97
2017-07-26T12:35:06.393Z,50.77
2017-07-26T12:37:07.835Z,55.64
2017-07-26T12:39:09.281Z,53.73
2017-07-26T12:41:10.724Z,54.80
2017-07-26T12:43:53.161Z,51.74
2017-07-26T12:45:54.601Z,55.42
2017-07-26T12:47:56.049Z,55.13
2017-07-26T12:49:57.488Z,55.32
2017-07-26T12:51:58.944Z,55.62
2017-07-26T12:54:00.378Z,54.26
2017-07-26T12:56:01.825Z,55.22
2017-07-26T12:58:03.255Z,55.42
2017-07-26T13:00:04.726Z,55.35
2017-07-26T13:02:46.173Z,53.61
2017-07-26T13:04:47.614Z,53.19
2017-07-26T13:06:49.084Z,54.84
2017-07-26T13:08:50.909Z,57.45
2017-07-26T13:10:52.337Z,56.29
2017-07-26T13:12:53.808Z,55.42
2017-07-26T13:14:55.239Z,53.87
2017-07-26T13:16:56.688Z,51.54
2017-07-26T13:18:58.127Z,51.54
2017-07-26T13:20:59.565Z,50.77
2017-07-26T13:23:01.006Z,53.17
2017-07-26T13:25:02.447Z,52.12
2017-07-26T13:27:03.891Z,50.67
2017-07-26T13:29:05.332Z,50.19
2017-07-26T13:31:06.756Z,49.80
2017-07-26T13:33:08.223Z,48.54
2017-07-26T13:35:09.673Z,49.92
2017-07-26T13:37:11.116Z,47.79
2017-07-26T13:39:12.573Z,49.12
2017-07-26T13:41:14.017Z,47.77
2017-07-26T13:43:15.491Z,49.58
2017-07-26T13:45:16.930Z,52.42
2017-07-26T13:47:18.376Z,54.45
2017-07-26T13:49:19.816Z,50.67
2017-07-26T13:51:21.253Z,51.74
2017-07-26T13:53:22.698Z,50.57
2017-07-26T13:55:24.157Z,51.64
2017-07-26T13:57:25.625Z,51.25
2017-07-26T13:59:27.071Z,50.67
2017-07-26T14:01:28.521Z,50.94
2017-07-26T14:03:29.960Z,52.20
2017-07-26T14:05:31.429Z,52.58
2017-07-26T14:07:32.875Z,53.45
2017-07-26T14:09:34.348Z,50.74
2017-07-26T14:11:35.846Z,48.54
2017-07-26T14:13:37.287Z,50.19
2017-07-26T14:15:38.727Z,48.06
2017-07-26T14:17:40.337Z,50.19
2017-07-26T14:19:41.756Z,51.76
2017-07-26T14:21:43.196Z,51.79
2017-07-26T14:23:44.639Z,49.37
2017-07-26T14:25:46.106Z,49.85
2017-07-26T14:27:47.539Z,45.95
2017-07-26T14:29:48.988Z,47.62
2017-07-26T14:31:50.429Z,47.42
2017-07-26T14:33:51.874Z,46.62
2017-07-26T14:35:53.313Z,49.17
2017-07-26T14:37:54.754Z,44.78
2017-07-26T14:39:56.195Z,49.34
2017-07-26T14:41:57.636Z,49.05
2017-07-26T14:43:59.096Z,47.98
2017-07-26T14:46:00.689Z,49.44
2017-07-26T14:48:02.160Z,49.22
2017-07-26T14:50:03.776Z,51.25
2017-07-26T14:52:05.285Z,51.06
2017-07-26T14:54:06.772Z,52.71
2017-07-26T14:56:08.415Z,50.87
2017-07-26T14:58:09.879Z,52.29
2017-07-26T15:00:11.390Z,52.68
2017-07-26T15:02:12.951Z,53.26
2017-07-26T15:04:14.472Z,53.55
2017-07-26T15:06:15.966Z,51.52
2017-07-26T15:08:17.471Z,51.42
2017-07-26T15:10:18.933Z,52.68
2017-07-26T15:12:20.457Z,53.77
2017-07-26T15:14:21.865Z,51.74
2017-07-26T15:16:23.799Z,53.87
2017-07-26T15:19:06.194Z,50.77
2017-07-26T15:21:07.637Z,51.84
2017-07-26T15:23:09.079Z,51.54
2017-07-26T15:25:10.532Z,50.99
2017-07-26T15:27:11.989Z,49.12
2017-07-26T15:29:13.417Z,51.57
2017-07-26T15:31:14.856Z,50.70
2017-07-26T15:33:16.374Z,50.31
2017-07-26T15:35:17.809Z,49.80
2017-07-26T15:37:19.320Z,51.06
2017-07-26T15:39:20.754Z,52.64
2017-07-26T15:41:22.271Z,51.09
2017-07-26T15:43:23.794Z,51.37
2017-07-26T15:45:25.291Z,51.28
2017-07-26T15:47:26.810Z,50.31
2017-07-26T15:49:28.339Z,51.76
2017-07-26T15:51:29.785Z,51.76
2017-07-26T15:53:31.314Z,51.84
2017-07-26T15:55:32.756Z,54.26
2017-07-26T15:57:34.203Z,51.35
2017-07-26T15:59:35.644Z,52.71
2017-07-26T16:01:37.086Z,51.74
2017-07-26T16:03:38.557Z,50.19
2017-07-26T16:05:39.991Z,53.09
2017-07-26T16:07:41.432Z,51.64
2017-07-26T16:09:43.299Z,53.09
2017-07-26T16:11:44.714Z,52.51
2017-07-26T16:13:46.763Z,51.74
2017-07-26T16:15:48.267Z,52.22
2017-07-26T16:17:49.803Z,53.29
2017-07-26T16:19:51.285Z,54.64
2017-07-26T16:21:52.805Z,52.51
2017-07-26T16:23:54.307Z,53.77
2017-07-26T16:25:55.797Z,51.84
2017-07-26T16:27:57.360Z,53.94
2017-07-26T16:29:58.860Z,53.85
2017-07-26T16:32:00.359Z,53.36
2017-07-26T16:34:01.840Z,53.17
2017-07-26T16:36:03.326Z,53.09
2017-07-26T16:38:04.780Z,52.90
2017-07-26T16:40:06.227Z,53.36
2017-07-26T16:42:07.665Z,53.87
2017-07-26T16:44:09.202Z,53.26
2017-07-26T16:46:51.652Z,53.75
2017-07-26T16:48:53.092Z,52.29
2017-07-26T16:50:54.537Z,52.39
2017-07-26T16:52:55.977Z,53.33
2017-07-26T16:54:57.420Z,52.46
2017-07-26T16:56:58.860Z,54.03
2017-07-26T16:59:00.311Z,53.63
2017-07-26T17:01:01.742Z,54.13
2017-07-26T17:03:03.181Z,53.85
2017-07-26T17:05:04.621Z,53.14
2017-07-26T17:07:06.059Z,55.94
2017-07-26T17:09:07.503Z,54.30
2017-07-26T17:11:09.040Z,53.81
2017-07-26T17:13:10.469Z,54.88
2017-07-26T17:15:12.012Z,55.27
2017-07-26T17:17:13.511Z,55.43
2017-07-26T17:19:55.948Z,56.82
2017-07-26T17:22:39.355Z,58.47
2017-07-26T17:24:40.795Z,57.59
2017-07-26T17:26:42.234Z,56.43
2017-07-26T17:28:43.676Z,56.34
2017-07-26T17:30:45.113Z,55.46
2017-07-26T17:32:46.550Z,56.40
2017-07-26T17:34:47.992Z,56.88
2017-07-26T17:36:49.434Z,58.24
2017-07-26T17:38:50.877Z,56.88
2017-07-26T17:40:52.323Z,57.66
2017-07-26T17:42:53.753Z,56.86
2017-07-26T17:45:37.166Z,58.89
2017-07-26T17:47:38.605Z,58.18
2017-07-26T17:49:40.042Z,58.98
2017-07-26T17:51:41.478Z,59.86
2017-07-26T17:53:42.918Z,58.89
2017-07-26T17:56:25.347Z,59.83
2017-07-26T17:58:26.784Z,60.60
2017-07-26T18:00:28.221Z,60.02
2017-07-26T18:02:29.659Z,60.69
2017-07-26T18:04:31.087Z,61.18
2017-07-26T18:06:32.522Z,62.34
2017-07-26T18:08:33.972Z,61.95
2017-07-26T18:10:35.429Z,62.92
2017-07-26T18:12:36.849Z,62.50
2017-07-26T18:14:38.291Z,62.70
2017-07-26T18:16:39.727Z,62.50
2017-07-26T18:18:41.166Z,62.98
2017-07-26T18:20:42.640Z,62.89
2017-07-26T18:23:25.137Z,63.56
2017-07-26T18:25:26.574Z,63.47
2017-07-26T18:27:28.009Z,62.50
2017-07-26T18:29:29.441Z,62.89
2017-07-26T18:31:30.878Z,64.43
2017-07-26T18:33:32.314Z,64.72
2017-07-26T18:35:33.746Z,64.34
2017-07-26T18:37:35.179Z,62.89
2017-07-26T18:39:36.614Z,63.66
2017-07-26T18:41:38.049Z,62.12
2017-07-26T18:43:39.483Z,61.83
2017-07-26T18:45:40.915Z,61.18
2017-07-26T18:47:42.347Z,63.37
2017-07-26T18:49:43.892Z,60.57
2017-07-26T18:51:45.343Z,63.37
2017-07-26T18:53:46.761Z,61.25
2017-07-26T18:55:48.195Z,60.09
2017-07-26T18:57:49.628Z,62.60
2017-07-26T19:00:32.145Z,62.31
2017-07-26T19:02:33.554Z,60.96
2017-07-26T19:04:34.991Z,60.09
2017-07-26T19:06:36.427Z,61.05
2017-07-26T19:08:37.859Z,59.99
2017-07-26T19:10:39.297Z,59.60
2017-07-26T19:12:40.729Z,61.83
2017-07-26T19:14:42.162Z,61.92
2017-07-26T19:16:43.629Z,61.34
2017-07-26T19:18:45.077Z,60.09
2017-07-26T19:20:46.512Z,62.12
2017-07-26T19:22:47.945Z,61.92
2017-07-26T19:24:49.831Z,60.57
2017-07-26T19:26:51.254Z,59.80
2017-07-26T19:28:52.706Z,59.41
2017-07-26T19:30:54.180Z,61.34
2017-07-26T19:33:36.590Z,60.86
2017-07-26T19:35:38.022Z,61.15
2017-07-26T19:37:39.461Z,62.02
2017-07-26T19:39:40.890Z,61.92
2017-07-26T19:41:42.322Z,62.66
2017-07-26T19:43:43.786Z,61.99
2017-07-26T19:45:45.233Z,62.28
2017-07-26T19:47:46.661Z,63.05
2017-07-26T19:49:48.110Z,62.28
2017-07-26T19:51:50.292Z,62.86
2017-07-26T19:53:51.776Z,63.53
2017-07-26T19:55:53.243Z,63.92
2017-07-26T19:57:55.293Z,63.43
2017-07-26T19:59:56.940Z,63.43
2017-07-26T20:01:58.467Z,63.50
2017-07-26T20:03:59.941Z,63.79
2017-07-26T20:06:01.469Z,63.60
2017-07-26T20:08:02.968Z,63.70
2017-07-26T20:10:04.438Z,62.73
2017-07-26T20:12:05.925Z,63.89
2017-07-26T20:14:07.391Z,64.28
2017-07-26T20:16:08.861Z,65.34
2017-07-26T20:18:10.343Z,64.86
2017-07-26T20:20:11.955Z,65.05
2017-07-26T20:22:13.468Z,65.53
2017-07-26T20:24:14.948Z,65.78
2017-07-26T20:26:16.481Z,65.20
2017-07-26T20:28:18.333Z,65.01
2017-07-26T20:30:19.762Z,64.63
2017-07-26T20:32:21.877Z,65.11
2017-07-26T20:34:23.346Z,65.14
2017-07-26T20:36:24.810Z,65.30
2017-07-26T20:38:26.330Z,65.20
2017-07-26T20:40:27.836Z,66.27
2017-07-26T20:42:29.315Z,64.43
2017-07-26T20:45:11.731Z,65.59
2017-07-26T20:47:13.226Z,66.36
2017-07-26T20:49:14.641Z,66.36
2017-07-26T20:51:16.076Z,65.69
2017-07-26T20:53:17.802Z,65.30
2017-07-26T20:55:19.235Z,66.27
2017-07-26T20:57:20.667Z,65.30
2017-07-26T20:59:22.099Z,65.98
2017-07-26T21:01:23.774Z,65.69
2017-07-26T21:03:25.940Z,65.59
2017-07-26T21:05:27.359Z,66.46
2017-07-26T21:07:28.819Z,65.01
2017-07-26T21:09:30.283Z,64.05
2017-07-26T21:11:31.782Z,64.63
2017-07-26T21:13:33.293Z,66.27
2017-07-26T21:15:35.314Z,66.17
2017-07-26T21:17:36.798Z,65.69
2017-07-26T21:20:19.251Z,63.76
2017-07-26T21:22:20.681Z,67.33
2017-07-26T21:24:22.238Z,67.33
2017-07-26T21:26:23.654Z,68.29
2017-07-26T21:28:25.086Z,68.87
2017-07-26T21:30:26.522Z,68.77
2017-07-26T21:32:27.951Z,69.07
2017-07-26T21:34:29.914Z,68.97
2017-07-26T21:36:31.352Z,69.23
2017-07-26T21:38:32.810Z,69.64
2017-07-26T21:40:34.249Z,69.90
2017-07-26T21:42:35.792Z,69.71
2017-07-26T21:44:37.491Z,68.07
2017-07-26T21:47:19.912Z,69.64
2017-07-26T21:49:21.639Z,68.55
2017-07-26T21:51:23.029Z,65.50
2017-07-26T21:53:24.458Z,65.56
2017-07-26T21:55:25.893Z,65.27
2017-07-26T21:57:27.324Z,65.37
2017-07-26T21:59:28.835Z,64.59
2017-07-26T22:01:30.338Z,64.50
2017-07-26T22:03:32.082Z,64.79
2017-07-26T22:05:33.568Z,64.98
2017-07-26T22:07:35.005Z,66.17
2017-07-26T22:10:17.424Z,67.91
2017-07-26T22:12:18.853Z,64.40
2017-07-26T22:14:20.382Z,64.31
2017-07-26T22:16:21.826Z,64.50
2017-07-26T22:18:23.240Z,65.27
2017-07-26T22:20:25.240Z,65.08
2017-07-26T22:22:26.964Z,64.31
2017-07-26T22:24:28.430Z,65.27
2017-07-26T22:26:29.885Z,64.98
2017-07-26T22:28:31.718Z,65.56
2017-07-26T22:30:34.043Z,65.08
2017-07-26T22:32:35.639Z,65.47
2017-07-26T22:34:37.110Z,64.89
2017-07-26T22:36:38.641Z,64.92
2017-07-26T22:38:40.846Z,65.37
2017-07-26T22:40:42.356Z,64.79
2017-07-26T22:43:25.476Z,64.50
2017-07-26T22:45:26.900Z,64.69
2017-07-26T22:47:28.365Z,64.50
2017-07-26T22:49:29.794Z,64.69
2017-07-26T22:51:31.224Z,65.37
2017-07-26T22:54:13.634Z,64.89
2017-07-26T22:56:15.072Z,66.33
2017-07-26T22:58:16.493Z,64.79
2017-07-26T23:00:18.432Z,66.24
2017-07-26T23:02:20.539Z,67.46
2017-07-26T23:05:02.945Z,68.99
2017-07-26T23:07:04.372Z,68.90
2017-07-26T23:09:05.806Z,69.67
2017-07-26T23:11:07.412Z,70.98
2017-07-26T23:13:08.830Z,70.41
2017-07-26T23:15:10.261Z,71.66
2017-07-26T23:17:11.767Z,72.24
2017-07-26T23:19:13.384Z,72.43
2017-07-26T23:21:14.825Z,71.66
2017-07-26T23:23:16.248Z,72.81
2017-07-26T23:25:17.681Z,72.14
2017-07-26T23:27:19.116Z,72.24
2017-07-26T23:29:20.542Z,73.39
2017-07-26T23:31:21.970Z,72.97
2017-07-26T23:33:23.401Z,73.78
2017-07-26T23:35:24.836Z,73.30
2017-07-26T23:37:26.576Z,73.01
2017-07-26T23:39:28.061Z,74.16
2017-07-26T23:41:29.569Z,75.13
2017-07-26T23:44:12.001Z,75.76
2017-07-26T23:46:13.429Z,77.11
2017-07-26T23:48:14.964Z,77.78
2017-07-26T23:50:16.400Z,78.08
2017-07-26T23:52:17.823Z,78.46
2017-07-26T23:54:19.888Z,79.13
2017-07-26T23:56:22.172Z,79.03
2017-07-26T23:58:23.833Z,78.94
